Erowati — 3FBC9 — position and weather

sailwx.info

Track history (hours):
 
Tides and Currents Weather Stations Pressure Air Temp Water Temp Dewpoint Dewpoint Depression Visibility Wind Speed Wind Dir Waves Ship Positions

Erowati

Last reported at 2018-Feb-17 06:55 UTC. Time now 2018-Feb-26 01:51 UTC.
Position N 34°26' E 133°56'.
Warning: this ship's position is 8 days out of date.

Length 190 m; draft 8 m.

Type: Cargo ship. MMSI: 353320000.

Date/timePositionNaut miles runAvg speedWind from/ knotsBaromVisibWave heightAir tempDewpointWater temp
2018-Feb-17 06:55N 34°26' E 133°56'  
2018-Feb-10 19:49N 34°05' E 132°49'515.3
2018-Feb-10 19:30N 34°02' E 132°45'714.7
2018-Feb-10 19:00N 33°56' E 132°40'715.1
2018-Feb-10 18:30N 33°50' E 132°34'815.0
2018-Feb-10 17:59N 33°45' E 132°27'714.8
2018-Feb-10 17:30N 33°40' E 132°21'714.5
2018-Feb-10 17:00N 33°35' E 132°14'714.5
2018-Feb-10 16:29N 33°30' E 132°08'714.5
2018-Feb-10 16:00N 33°25' E 132°02'713.6
2018-Feb-10 15:31N 33°18' E 132°00'510.8
2018-Feb-10 15:00N 33°13' E 131°59'4 8.0
2018-Feb-10 14:29N 33°10' E 132°02'1310.9
2018-Feb-10 13:16N 32°60' E 132°12'  
Track history (hours):
 
Tides and Currents Weather Stations Pressure Air Temp Water Temp Dewpoint Dewpoint Depression Visibility Wind Speed Wind Dir Waves Ship Positions

Erowati

Last reported at 2018-Feb-17 06:55 UTC. Time now 2018-Feb-26 01:51 UTC.
Position N 34°26' E 133°56'.
Warning: this ship's position is 8 days out of date.

Length 190 m; draft 8 m.

Type: Cargo ship. MMSI: 353320000.

Date/timePositionNaut miles runAvg speedWind from/ knotsBaromVisibWave heightAir tempDewpointWater temp
2018-Feb-17 06:55N 34°26' E 133°56'  
2018-Feb-10 19:49N 34°05' E 132°49'515.3
2018-Feb-10 19:30N 34°02' E 132°45'714.7
2018-Feb-10 19:00N 33°56' E 132°40'715.1
2018-Feb-10 18:30N 33°50' E 132°34'815.0
2018-Feb-10 17:59N 33°45' E 132°27'714.8
2018-Feb-10 17:30N 33°40' E 132°21'714.5
2018-Feb-10 17:00N 33°35' E 132°14'714.5
2018-Feb-10 16:29N 33°30' E 132°08'714.5
2018-Feb-10 16:00N 33°25' E 132°02'713.6
2018-Feb-10 15:31N 33°18' E 132°00'510.8
2018-Feb-10 15:00N 33°13' E 131°59'4 8.0
2018-Feb-10 14:29N 33°10' E 132°02'1310.9
2018-Feb-10 13:16N 32°60' E 132°12'  

Dump ship's entire track history